Time;durP1;ratioP1;P1;durP2;ratioP2;P2;SDS_P1;SDS_P2;PMS_P1;PMS_P2;Temp;Humidity;BMP_temperature;BMP_pressure;BME280_temperature;BME280_humidity;BME280_pressure;Samples;Min_cycle;Max_cycle;Signal;HPM_P1;HPM_P2
2020/12/08 00:01:25;;;;;;;39.45;23.35;;;2.80;99.90;;;;;;5113741;28;20127;-76
2020/12/08 00:03:51;;;;;;;40.40;22.48;;;2.80;99.90;;;;;;5113700;28;20048;-75
2020/12/08 00:06:18;;;;;;;40.38;22.35;;;2.80;99.90;;;;;;5113667;28;20079;-77
2020/12/08 00:08:44;;;;;;;40.28;22.75;;;2.80;99.90;;;;;;5113885;28;20519;-76
2020/12/08 00:11:16;;;;;;;40.05;23.33;;;2.80;99.90;;;;;;5113583;28;20079;-77
2020/12/08 00:13:42;;;;;;;38.72;21.48;;;2.80;99.90;;;;;;5113532;28;20093;-77
2020/12/08 00:16:10;;;;;;;40.90;22.48;;;2.80;99.90;;;;;;5113692;28;20143;-76
2020/12/08 00:18:37;;;;;;;38.00;21.08;;;2.90;99.90;;;;;;5113605;27;20047;-75
2020/12/08 00:21:03;;;;;;;39.15;21.65;;;2.90;99.90;;;;;;5113263;28;20139;-72
2020/12/08 00:23:30;;;;;;;35.22;21.73;;;3.00;99.90;;;;;;5113307;28;20090;-75
2020/12/08 00:25:56;;;;;;;35.58;20.38;;;3.00;99.90;;;;;;5113282;28;20126;-75
2020/12/08 00:28:23;;;;;;;36.85;21.25;;;3.00;99.90;;;;;;5113635;28;20048;-76
2020/12/08 00:30:51;;;;;;;36.42;21.60;;;3.00;99.90;;;;;;5113569;28;20479;-75
2020/12/08 00:33:18;;;;;;;36.53;21.45;;;2.90;99.90;;;;;;5113147;28;20109;-75
2020/12/08 00:35:45;;;;;;;35.17;20.80;;;2.90;99.90;;;;;;5113324;28;20134;-76
2020/12/08 00:38:11;;;;;;;36.85;21.40;;;2.80;99.90;;;;;;5113249;28;20138;-76
2020/12/08 00:40:37;;;;;;;38.10;22.08;;;2.80;99.90;;;;;;5113554;28;20127;-74
2020/12/08 00:43:04;;;;;;;36.40;21.13;;;2.70;99.90;;;;;;5113023;28;20098;-76
2020/12/08 00:45:30;;;;;;;41.63;22.52;;;2.60;99.90;;;;;;5111879;28;20087;-72
2020/12/08 00:47:57;;;;;;;40.50;23.02;;;2.60;99.90;;;;;;5111533;28;20465;-74
2020/12/08 00:50:24;;;;;;;41.80;23.27;;;2.60;99.90;;;;;;5113850;28;20131;-73
2020/12/08 00:52:50;;;;;;;40.58;23.25;;;2.60;99.90;;;;;;5111187;28;20128;-74
2020/12/08 00:55:17;;;;;;;41.20;21.75;;;2.70;99.90;;;;;;5113847;28;20066;-75
2020/12/08 00:57:43;;;;;;;37.85;21.90;;;2.70;99.90;;;;;;5112433;28;20092;-75
2020/12/08 01:00:09;;;;;;;36.38;22.13;;;2.80;99.90;;;;;;5110108;28;20504;-75
2020/12/08 01:02:36;;;;;;;43.22;22.85;;;2.80;99.90;;;;;;5112567;28;20428;-73
2020/12/08 01:05:03;;;;;;;39.58;22.00;;;2.80;99.90;;;;;;5112269;28;20477;-73
2020/12/08 01:07:30;;;;;;;38.42;22.30;;;2.90;99.90;;;;;;5109391;28;20131;-74
2020/12/08 01:09:56;;;;;;;34.05;20.80;;;2.90;99.90;;;;;;5112366;28;20049;-74
2020/12/08 01:12:23;;;;;;;35.90;21.17;;;2.90;99.90;;;;;;5111970;28;20080;-74
2020/12/08 01:14:49;;;;;;;36.40;21.63;;;3.00;99.90;;;;;;5115564;28;20086;-75
2020/12/08 01:17:15;;;;;;;36.95;20.70;;;3.00;99.90;;;;;;5116529;28;20122;-73
2020/12/08 01:19:42;;;;;;;35.80;21.80;;;3.10;99.90;;;;;;5113360;28;20101;-75
2020/12/08 01:22:08;;;;;;;35.10;21.45;;;3.10;99.90;;;;;;5111897;28;20127;-75
2020/12/08 01:24:35;;;;;;;39.92;22.75;;;3.10;99.90;;;;;;5111876;28;20048;-75
2020/12/08 01:27:02;;;;;;;36.72;22.20;;;3.00;99.90;;;;;;5111711;28;20142;-75
2020/12/08 01:29:28;;;;;;;39.03;22.23;;;3.10;99.90;;;;;;5111889;28;20081;-75
2020/12/08 01:31:54;;;;;;;35.88;21.67;;;3.10;99.90;;;;;;5111687;28;20576;-75
2020/12/08 01:34:21;;;;;;;35.50;20.45;;;3.10;99.90;;;;;;5112292;28;20079;-76
2020/12/08 01:36:51;;;;;;;38.13;21.45;;;3.10;99.90;;;;;;5111601;28;20074;-75
2020/12/08 01:39:17;;;;;;;38.85;22.98;;;3.10;99.90;;;;;;5111274;28;20066;-75
2020/12/08 01:41:45;;;;;;;39.50;23.20;;;3.10;99.90;;;;;;5108735;28;20082;-75
2020/12/08 01:44:14;;;;;;;37.17;22.98;;;3.10;99.90;;;;;;5111432;28;20139;-75
2020/12/08 01:46:41;;;;;;;40.85;23.00;;;3.00;99.90;;;;;;5111683;28;20043;-73
2020/12/08 01:49:08;;;;;;;42.10;24.70;;;3.00;99.90;;;;;;5111760;28;20130;-74
2020/12/08 01:51:37;;;;;;;38.10;23.10;;;2.90;99.90;;;;;;5111629;28;20467;-74
2020/12/08 01:54:05;;;;;;;40.22;23.25;;;2.80;99.90;;;;;;5112124;28;20134;-75
2020/12/08 01:56:31;;;;;;;43.00;24.00;;;2.80;99.90;;;;;;5112195;28;20086;-74
2020/12/08 01:58:59;;;;;;;46.13;24.48;;;2.70;99.90;;;;;;5112177;28;20130;-75
2020/12/08 02:01:25;;;;;;;40.15;23.02;;;2.60;99.90;;;;;;5111833;28;20469;-75
2020/12/08 02:03:53;;;;;;;38.78;23.90;;;2.60;99.90;;;;;;5112032;28;20087;-74
2020/12/08 02:06:21;;;;;;;40.45;23.80;;;2.50;99.90;;;;;;5111873;28;20073;-76
2020/12/08 02:08:47;;;;;;;39.55;22.83;;;2.50;99.90;;;;;;5112050;28;20048;-75
2020/12/08 02:11:14;;;;;;;41.10;23.83;;;2.50;99.90;;;;;;5111283;28;20083;-74
2020/12/08 02:13:40;;;;;;;43.40;24.48;;;2.50;99.90;;;;;;5111779;28;20109;-74
2020/12/08 02:16:07;;;;;;;40.72;22.98;;;2.50;99.90;;;;;;5112034;28;20094;-74
2020/12/08 02:18:34;;;;;;;37.90;22.38;;;2.60;99.90;;;;;;5112098;28;20131;-75
2020/12/08 02:21:03;;;;;;;42.28;23.10;;;2.60;99.90;;;;;;5111579;28;20135;-74
2020/12/08 02:23:30;;;;;;;39.40;21.77;;;2.60;99.90;;;;;;5111531;28;20047;-75
2020/12/08 02:25:58;;;;;;;40.92;23.15;;;2.60;99.90;;;;;;5111478;28;20135;-75
2020/12/08 02:28:25;;;;;;;41.33;21.95;;;2.70;99.90;;;;;;5111941;28;20135;-74
2020/12/08 02:30:51;;;;;;;38.85;21.65;;;2.70;99.90;;;;;;5111597;28;20157;-74
2020/12/08 02:33:22;;;;;;;35.58;21.52;;;2.70;99.90;;;;;;5111358;28;20131;-75
2020/12/08 02:35:48;;;;;;;36.85;21.27;;;2.80;99.90;;;;;;5111803;28;20136;-75
2020/12/08 02:38:15;;;;;;;37.33;21.50;;;2.80;99.90;;;;;;5111575;28;20143;-74
2020/12/08 02:40:42;;;;;;;42.42;22.70;;;2.90;99.90;;;;;;5111827;28;20090;-76
2020/12/08 02:43:08;;;;;;;37.17;22.00;;;2.90;99.90;;;;;;5111403;28;20143;-75
2020/12/08 02:45:34;;;;;;;38.75;21.30;;;2.90;99.90;;;;;;5111724;28;20083;-74
2020/12/08 02:48:01;;;;;;;40.55;22.73;;;3.00;99.90;;;;;;5111550;28;20130;-74
2020/12/08 02:50:27;;;;;;;37.38;21.73;;;3.00;99.90;;;;;;5115137;28;20130;-75
2020/12/08 02:52:53;;;;;;;38.20;22.27;;;3.00;99.90;;;;;;5114676;28;20089;-75
2020/12/08 02:55:21;;;;;;;37.35;21.83;;;3.00;99.90;;;;;;5115301;28;20139;-74
2020/12/08 02:57:47;;;;;;;35.90;21.10;;;3.10;99.90;;;;;;5115132;28;20048;-75
2020/12/08 03:00:14;;;;;;;39.15;21.13;;;3.10;99.90;;;;;;5115084;28;20507;-74
2020/12/08 03:02:40;;;;;;;36.53;21.25;;;3.20;99.90;;;;;;5114873;28;20143;-74
2020/12/08 03:05:07;;;;;;;34.10;20.95;;;3.20;99.90;;;;;;5114627;28;20130;-74
2020/12/08 03:07:33;;;;;;;39.88;21.98;;;3.20;99.90;;;;;;5114779;28;20138;-74
2020/12/08 03:09:59;;;;;;;37.40;22.17;;;3.20;99.90;;;;;;5115155;28;20083;-74
2020/12/08 03:12:27;;;;;;;35.50;21.90;;;3.30;99.90;;;;;;5114797;27;20537;-74
2020/12/08 03:14:53;;;;;;;40.00;22.67;;;3.30;99.90;;;;;;5114887;28;20134;-75
2020/12/08 03:17:19;;;;;;;36.63;20.95;;;3.30;99.90;;;;;;5114869;28;20131;-74
2020/12/08 03:19:46;;;;;;;36.95;22.55;;;3.30;99.90;;;;;;5114578;28;20130;-74
2020/12/08 03:22:12;;;;;;;37.65;21.15;;;3.30;99.90;;;;;;5114320;28;20181;-74
2020/12/08 03:24:38;;;;;;;37.55;21.02;;;3.30;99.90;;;;;;5114456;28;20079;-74
2020/12/08 03:27:05;;;;;;;37.63;22.67;;;3.30;99.90;;;;;;5114314;28;20130;-74
2020/12/08 03:29:32;;;;;;;36.35;21.77;;;3.40;99.90;;;;;;5114476;28;20579;-74
2020/12/08 03:31:58;;;;;;;37.90;21.58;;;3.40;99.90;;;;;;5114395;28;20130;-75
2020/12/08 03:34:25;;;;;;;38.13;21.95;;;3.40;99.90;;;;;;5114353;28;20582;-75
2020/12/08 03:36:51;;;;;;;40.00;23.67;;;3.40;99.90;;;;;;5114333;28;20079;-75
2020/12/08 03:39:18;;;;;;;46.03;25.83;;;3.40;99.90;;;;;;5114377;28;20126;-74
2020/12/08 03:41:45;;;;;;;44.58;25.85;;;3.50;99.90;;;;;;5114172;28;20139;-75
2020/12/08 03:44:11;;;;;;;39.72;24.08;;;3.50;99.90;;;;;;5114116;28;20078;-75
2020/12/08 03:46:39;;;;;;;52.70;28.80;;;3.50;99.90;;;;;;5114218;28;20509;-75
2020/12/08 03:49:05;;;;;;;53.08;29.65;;;3.50;99.90;;;;;;5114455;28;20139;-76
2020/12/08 03:51:31;;;;;;;54.30;29.70;;;3.50;99.90;;;;;;5114038;28;20044;-76
2020/12/08 03:53:58;;;;;;;53.78;31.05;;;3.60;99.90;;;;;;5113934;28;20126;-75
2020/12/08 03:56:24;;;;;;;67.72;32.80;;;3.60;99.90;;;;;;5113894;28;20558;-75
2020/12/08 03:58:51;;;;;;;60.70;33.17;;;3.60;99.90;;;;;;5114188;28;20134;-75
2020/12/08 04:01:19;;;;;;;62.40;32.50;;;3.60;99.90;;;;;;5112939;28;20134;-75
2020/12/08 04:03:47;;;;;;;56.58;31.45;;;3.60;99.90;;;;;;5113691;28;20479;-75
2020/12/08 04:06:14;;;;;;;56.15;30.88;;;3.60;99.90;;;;;;5113829;28;20086;-75
2020/12/08 04:08:41;;;;;;;54.42;30.55;;;3.60;99.90;;;;;;5113682;28;20562;-74
2020/12/08 04:11:07;;;;;;;56.80;31.38;;;3.70;99.90;;;;;;5113395;28;20134;-75
2020/12/08 04:13:34;;;;;;;51.22;29.75;;;3.70;99.90;;;;;;5113503;28;20492;-74
2020/12/08 04:16:00;;;;;;;56.03;30.52;;;3.70;99.90;;;;;;5113702;28;20476;-73
2020/12/08 04:18:27;;;;;;;49.65;29.30;;;3.70;99.90;;;;;;5114003;28;20079;-75
2020/12/08 04:20:54;;;;;;;48.83;28.88;;;3.70;99.90;;;;;;5113901;28;20491;-75
2020/12/08 04:23:22;;;;;;;55.20;31.15;;;3.70;99.90;;;;;;5113062;28;20133;-75
2020/12/08 04:25:50;;;;;;;60.05;29.95;;;3.70;99.90;;;;;;5113653;28;20051;-74
2020/12/08 04:28:16;;;;;;;57.65;30.25;;;3.60;99.90;;;;;;5113401;28;20119;-73
2020/12/08 04:30:43;;;;;;;58.10;32.42;;;3.60;99.90;;;;;;5113168;28;20511;-74
2020/12/08 04:33:09;;;;;;;56.50;30.27;;;3.60;99.90;;;;;;5112897;28;20098;-74
2020/12/08 04:35:35;;;;;;;54.08;29.92;;;3.60;99.90;;;;;;5113478;28;20079;-74
2020/12/08 04:38:03;;;;;;;55.67;29.77;;;3.60;99.90;;;;;;5113384;28;20131;-74
2020/12/08 04:40:29;;;;;;;57.38;30.98;;;3.60;99.90;;;;;;5113325;28;20091;-74
2020/12/08 04:42:55;;;;;;;55.22;30.98;;;3.60;99.90;;;;;;5112759;28;20490;-74
2020/12/08 04:45:23;;;;;;;58.60;31.23;;;3.60;99.90;;;;;;5112908;28;20056;-74
2020/12/08 04:47:51;;;;;;;55.80;30.67;;;3.60;99.90;;;;;;5112985;28;20578;-75
2020/12/08 04:50:19;;;;;;;58.50;31.25;;;3.70;99.90;;;;;;5112962;28;20075;-75
2020/12/08 04:52:50;;;;;;;55.38;30.67;;;3.70;99.90;;;;;;5112661;28;20516;-75
2020/12/08 04:55:19;;;;;;;50.85;28.88;;;3.70;99.90;;;;;;5112963;28;20124;-75
2020/12/08 04:57:45;;;;;;;51.22;29.48;;;3.80;99.90;;;;;;5112870;28;20126;-73
2020/12/08 05:00:13;;;;;;;51.45;28.90;;;3.80;99.90;;;;;;5113032;28;20082;-74
2020/12/08 05:02:46;;;;;;;47.17;27.50;;;3.80;99.90;;;;;;5112638;28;20091;-73
2020/12/08 05:05:13;;;;;;;53.90;29.95;;;3.80;99.90;;;;;;5113612;28;20378;-73
2020/12/08 05:07:39;;;;;;;52.08;30.25;;;3.80;99.90;;;;;;5112829;28;20135;-73
2020/12/08 05:10:06;;;;;;;53.25;30.73;;;3.80;99.90;;;;;;5112943;28;20408;-74
2020/12/08 05:12:33;;;;;;;56.65;30.00;;;3.80;99.90;;;;;;5111464;28;20499;-73
2020/12/08 05:14:59;;;;;;;60.03;29.45;;;3.80;99.90;;;;;;5112639;28;20078;-74
2020/12/08 05:17:27;;;;;;;55.35;31.23;;;3.80;99.90;;;;;;5112725;28;20075;-74
2020/12/08 05:20:08;;;;;;;54.50;29.83;;;3.80;99.90;;;;;;5112645;28;20139;-74
2020/12/08 05:22:35;;;;;;;56.22;31.23;;;3.80;99.90;;;;;;5109968;28;20094;-73
2020/12/08 05:27:30;;;;;;;48.70;30.30;;;4.00;99.90;;;;;;5095913;28;20040;-79
2020/12/08 05:30:04;;;;;;;45.75;28.55;;;4.00;99.90;;;;;;5101325;28;20056;-79
2020/12/08 05:32:35;;;;;;;41.88;26.25;;;4.00;99.90;;;;;;5103422;28;20065;-78
2020/12/08 05:35:06;;;;;;;45.88;27.10;;;4.10;99.90;;;;;;5104151;28;20152;-78
2020/12/08 05:37:35;;;;;;;39.72;24.30;;;4.10;99.90;;;;;;5104168;28;20044;-79
2020/12/08 05:40:08;;;;;;;35.75;24.60;;;4.10;99.90;;;;;;5101355;28;20086;-77
2020/12/08 05:42:35;;;;;;;35.15;22.48;;;4.10;99.90;;;;;;5093816;28;20052;-78
2020/12/08 05:45:03;;;;;;;30.10;20.58;;;4.10;99.90;;;;;;5093816;28;20583;-79
2020/12/08 05:47:39;;;;;;;32.92;21.98;;;4.20;99.90;;;;;;5094605;28;20492;-79
2020/12/08 05:50:07;;;;;;;35.85;23.85;;;4.20;99.90;;;;;;5096555;28;20079;-79
2020/12/08 05:52:34;;;;;;;34.70;22.17;;;4.20;99.90;;;;;;5094841;28;20131;-78
2020/12/08 05:55:11;;;;;;;34.50;22.17;;;4.20;99.90;;;;;;5095026;28;20084;-78
2020/12/08 05:57:38;;;;;;;62.67;52.83;;;4.20;99.90;;;;;;5095580;28;20082;-77
2020/12/08 06:00:21;;;;;;;35.55;23.63;;;4.20;99.90;;;;;;5095428;28;20604;-78
2020/12/08 06:02:48;;;;;;;34.83;22.70;;;4.30;99.90;;;;;;5094112;28;20465;-77
2020/12/08 06:05:28;;;;;;;41.40;28.80;;;4.20;99.90;;;;;;5092456;28;20094;-77
2020/12/08 06:07:55;;;;;;;34.85;22.63;;;4.20;99.90;;;;;;5097300;28;20131;-78
2020/12/08 06:10:21;;;;;;;34.20;22.20;;;4.20;99.90;;;;;;5095270;28;20048;-78
2020/12/08 06:12:58;;;;;;;30.80;21.17;;;4.20;99.90;;;;;;5097084;28;20076;-79
2020/12/08 06:15:26;;;;;;;30.45;20.30;;;4.20;99.90;;;;;;5097957;28;20388;-78
2020/12/08 06:17:54;;;;;;;33.65;22.75;;;4.20;99.90;;;;;;5111320;28;20048;-83
2020/12/08 06:20:20;;;;;;;27.27;19.48;;;4.20;99.90;;;;;;5104531;28;20079;-79
2020/12/08 06:22:54;;;;;;;28.48;18.92;;;4.20;99.90;;;;;;5097309;28;20083;-78
2020/12/08 06:25:21;;;;;;;24.88;16.98;;;4.20;99.90;;;;;;5100846;28;20453;-77
2020/12/08 06:27:47;;;;;;;25.38;17.35;;;4.20;99.90;;;;;;5101330;28;20063;-78
2020/12/08 06:30:14;;;;;;;26.92;17.73;;;4.20;99.90;;;;;;5102885;28;20087;-79
2020/12/08 06:32:43;;;;;;;24.38;17.20;;;4.20;99.90;;;;;;5102314;28;20531;-78
2020/12/08 06:35:11;;;;;;;25.48;18.55;;;4.20;99.90;;;;;;5099465;28;20051;-76
2020/12/08 06:37:44;;;;;;;26.60;18.88;;;4.20;99.90;;;;;;5098571;28;20131;-76
2020/12/08 06:40:12;;;;;;;25.35;16.33;;;4.20;99.90;;;;;;5097414;28;20090;-78
2020/12/08 06:42:39;;;;;;;25.48;17.77;;;4.20;99.90;;;;;;5100198;28;20101;-77
2020/12/08 06:45:16;;;;;;;24.17;16.52;;;4.20;99.90;;;;;;5101944;28;20048;-78
2020/12/08 06:47:45;;;;;;;23.27;16.00;;;4.20;99.90;;;;;;5100102;28;20128;-78
2020/12/08 06:50:22;;;;;;;34.35;29.27;;;4.20;99.90;;;;;;5100902;28;20052;-78
2020/12/08 06:52:53;;;;;;;22.83;15.10;;;4.20;99.90;;;;;;5100918;28;20048;-79
2020/12/08 06:55:26;;;;;;;23.83;13.55;;;4.20;99.90;;;;;;5140652;22;20071;-78
2020/12/08 06:58:03;;;;;;;21.38;14.88;;;4.20;99.90;;;;;;5123991;28;20043;-79
2020/12/08 07:00:29;;;;;;;17.67;12.50;;;4.20;99.90;;;;;;5129415;28;20056;-79
2020/12/08 07:02:57;;;;;;;18.13;13.18;;;4.20;99.90;;;;;;5126320;28;20066;-78
2020/12/08 07:05:27;;;;;;;17.77;13.57;;;4.20;99.90;;;;;;5117862;28;20082;-77
2020/12/08 07:10:29;;;;;;;20.17;13.93;;;4.20;99.90;;;;;;5072256;28;20052;-74
2020/12/08 07:12:56;;;;;;;20.00;14.45;;;4.10;99.90;;;;;;5073151;28;20098;-76
2020/12/08 07:15:24;;;;;;;21.70;14.82;;;4.20;99.90;;;;;;5074193;28;20048;-75
2020/12/08 07:17:59;;;;;;;22.92;15.52;;;4.20;99.90;;;;;;5074133;28;20041;-74
2020/12/08 07:20:26;;;;;;;21.63;14.48;;;4.10;99.90;;;;;;5054200;28;20056;-74
2020/12/08 07:22:53;;;;;;;23.83;14.32;;;4.10;99.90;;;;;;5053553;28;20132;-75
2020/12/08 07:25:21;;;;;;;22.15;15.40;;;4.20;99.90;;;;;;5054237;28;20080;-75
2020/12/08 07:27:50;;;;;;;22.55;16.42;;;4.20;99.90;;;;;;5053688;28;20136;-75
2020/12/08 07:30:19;;;;;;;20.27;14.38;;;4.20;99.90;;;;;;5053331;28;20127;-73
2020/12/08 07:32:45;;;;;;;18.33;12.98;;;4.20;99.90;;;;;;5053187;28;20053;-79
2020/12/08 07:35:21;;;;;;;18.10;12.88;;;4.20;99.90;;;;;;5052241;28;20085;-72
2020/12/08 07:37:48;;;;;;;16.48;12.52;;;4.20;99.90;;;;;;5053503;28;20128;-74
2020/12/08 07:40:15;;;;;;;19.15;12.75;;;4.30;99.90;;;;;;5053326;28;20437;-74
2020/12/08 07:42:47;;;;;;;18.77;13.38;;;4.20;99.90;;;;;;5052883;28;20132;-74
2020/12/08 07:45:13;;;;;;;15.35;10.88;;;4.20;99.90;;;;;;5053200;28;20087;-75
2020/12/08 07:47:40;;;;;;;19.48;12.25;;;4.20;99.90;;;;;;5052372;28;20128;-75
2020/12/08 07:50:08;;;;;;;18.05;13.25;;;4.30;99.90;;;;;;5053147;28;20136;-74
2020/12/08 07:52:35;;;;;;;17.55;12.60;;;4.20;99.90;;;;;;5052737;28;20060;-73
2020/12/08 07:55:02;;;;;;;18.10;12.57;;;4.20;99.90;;;;;;5050303;28;20069;-75
2020/12/08 07:57:28;;;;;;;18.50;12.50;;;4.20;99.90;;;;;;5053071;28;20122;-75
2020/12/08 07:59:54;;;;;;;21.00;12.40;;;4.20;99.90;;;;;;5052800;28;20045;-75
2020/12/08 08:02:21;;;;;;;16.23;11.75;;;4.20;99.90;;;;;;5052343;28;20123;-74
2020/12/08 08:04:47;;;;;;;18.45;12.60;;;4.20;99.90;;;;;;5052930;28;20119;-73
2020/12/08 08:07:13;;;;;;;20.52;15.48;;;4.20;99.90;;;;;;5052916;28;20132;-73
2020/12/08 08:09:41;;;;;;;18.75;12.95;;;4.20;99.90;;;;;;5052367;28;20128;-72
2020/12/08 08:12:07;;;;;;;21.02;13.65;;;4.30;99.90;;;;;;5052566;28;20080;-75
2020/12/08 08:14:33;;;;;;;20.48;13.82;;;4.30;99.90;;;;;;5053126;28;20103;-74
2020/12/08 08:17:01;;;;;;;21.40;15.13;;;4.30;99.90;;;;;;5053691;28;20124;-75
2020/12/08 08:19:27;;;;;;;22.45;16.45;;;4.30;99.90;;;;;;5053159;28;20095;-75
2020/12/08 08:21:54;;;;;;;26.15;20.70;;;4.30;99.90;;;;;;5052105;28;20076;-75
2020/12/08 08:24:20;;;;;;;24.25;15.93;;;4.30;99.90;;;;;;5052389;28;20083;-74
2020/12/08 08:26:47;;;;;;;28.70;20.63;;;4.30;99.90;;;;;;5052135;28;20136;-75
2020/12/08 08:29:14;;;;;;;23.58;16.73;;;4.30;99.90;;;;;;5052701;28;20072;-74
2020/12/08 08:31:40;;;;;;;26.85;19.35;;;4.40;99.90;;;;;;5051924;28;20555;-75
2020/12/08 08:34:06;;;;;;;30.27;20.42;;;4.40;99.90;;;;;;5052470;28;20487;-75
2020/12/08 08:36:33;;;;;;;25.52;17.83;;;4.40;99.90;;;;;;5052364;28;20136;-74
2020/12/08 08:38:59;;;;;;;25.48;17.58;;;4.40;99.90;;;;;;5052381;28;20076;-74
2020/12/08 08:41:26;;;;;;;24.98;17.58;;;4.40;99.90;;;;;;5052402;28;20091;-74
2020/12/08 08:43:53;;;;;;;27.52;18.45;;;4.40;99.90;;;;;;5052208;28;20140;-74
2020/12/08 08:46:19;;;;;;;27.15;17.45;;;4.50;99.90;;;;;;5052174;28;20076;-74
2020/12/08 08:48:46;;;;;;;39.45;33.80;;;4.50;99.90;;;;;;5052017;28;20072;-75
2020/12/08 08:51:12;;;;;;;29.42;22.08;;;4.60;99.90;;;;;;5051735;28;20128;-75
2020/12/08 08:53:38;;;;;;;27.80;19.42;;;4.60;99.90;;;;;;5052223;28;20132;-75
2020/12/08 08:56:05;;;;;;;29.63;21.73;;;4.60;99.90;;;;;;5052740;28;20129;-74
2020/12/08 08:58:31;;;;;;;43.10;31.63;;;4.60;99.90;;;;;;5048902;28;20063;-76
2020/12/08 09:00:58;;;;;;;29.35;21.23;;;4.60;99.90;;;;;;5051534;28;20135;-74
2020/12/08 09:03:25;;;;;;;27.50;19.13;;;4.60;99.90;;;;;;5049493;28;20223;-75
2020/12/08 09:05:53;;;;;;;29.02;21.35;;;4.70;99.90;;;;;;5051495;28;20094;-74
2020/12/08 09:08:19;;;;;;;96.40;63.50;;;4.70;99.90;;;;;;5052866;28;20096;-74
2020/12/08 09:10:45;;;;;;;141.23;87.85;;;4.70;99.90;;;;;;5051704;28;20129;-74
2020/12/08 09:13:12;;;;;;;42.60;28.02;;;4.80;99.90;;;;;;5051037;28;20132;-75
2020/12/08 09:15:38;;;;;;;30.23;20.73;;;4.80;99.90;;;;;;5052050;28;20536;-75
2020/12/08 09:18:05;;;;;;;28.45;20.33;;;4.80;99.90;;;;;;5051481;28;20088;-75
2020/12/08 09:20:32;;;;;;;65.50;41.10;;;4.80;99.90;;;;;;5051764;28;20128;-75
2020/12/08 09:22:58;;;;;;;28.95;20.98;;;4.80;99.90;;;;;;5051049;28;20137;-75
2020/12/08 09:25:27;;;;;;;33.75;23.85;;;4.90;99.90;;;;;;5051340;28;20584;-76
2020/12/08 09:27:54;;;;;;;30.55;21.10;;;4.90;99.90;;;;;;5051373;28;20059;-74
2020/12/08 09:30:21;;;;;;;29.17;19.27;;;4.90;99.90;;;;;;5050268;28;20469;-74
2020/12/08 09:32:48;;;;;;;25.95;18.20;;;4.90;99.90;;;;;;5049578;28;20131;-75
2020/12/08 09:35:15;;;;;;;28.73;18.85;;;5.00;99.90;;;;;;5051482;28;20084;-75
2020/12/08 09:37:42;;;;;;;26.95;18.80;;;5.00;99.90;;;;;;5051985;28;20076;-74
2020/12/08 09:40:09;;;;;;;23.20;16.40;;;5.10;99.90;;;;;;5051868;28;20087;-75
2020/12/08 09:42:39;;;;;;;25.25;16.08;;;5.00;99.90;;;;;;5051780;28;20471;-74
2020/12/08 09:45:06;;;;;;;24.90;16.58;;;5.10;99.90;;;;;;5051788;28;20127;-75
2020/12/08 09:47:33;;;;;;;26.70;17.58;;;5.00;99.90;;;;;;5051952;28;20049;-75
2020/12/08 09:49:59;;;;;;;23.55;16.45;;;5.00;99.90;;;;;;5051606;28;20087;-75
2020/12/08 09:52:29;;;;;;;24.95;17.80;;;5.00;99.90;;;;;;5051022;28;20052;-74
2020/12/08 09:54:56;;;;;;;25.40;15.73;;;5.00;99.90;;;;;;5051610;28;20467;-73
2020/12/08 09:57:24;;;;;;;22.95;16.23;;;5.10;99.90;;;;;;5051547;28;20446;-74
2020/12/08 09:59:50;;;;;;;22.52;16.30;;;5.20;99.90;;;;;;5055010;28;20533;-74
2020/12/08 10:02:16;;;;;;;21.63;15.48;;;5.20;99.90;;;;;;5055653;28;20045;-75
2020/12/08 10:04:43;;;;;;;21.90;15.63;;;5.30;99.90;;;;;;5055828;28;20131;-76
2020/12/08 10:07:14;;;;;;;23.33;16.65;;;5.30;99.90;;;;;;5055479;28;20131;-75
2020/12/08 10:09:42;;;;;;;23.50;15.80;;;5.40;99.90;;;;;;5055550;28;20108;-76
2020/12/08 10:12:09;;;;;;;22.02;15.85;;;5.40;99.90;;;;;;5055023;28;20049;-74
2020/12/08 10:14:36;;;;;;;21.25;16.15;;;5.40;99.90;;;;;;5055463;28;20137;-75
2020/12/08 10:17:02;;;;;;;21.08;15.30;;;5.40;99.90;;;;;;5055543;28;20137;-75
2020/12/08 10:19:29;;;;;;;22.80;15.73;;;5.50;99.90;;;;;;5055224;28;20132;-76
2020/12/08 10:21:55;;;;;;;25.50;16.75;;;5.40;99.90;;;;;;5054941;28;20088;-74
2020/12/08 10:24:22;;;;;;;22.17;15.40;;;5.50;99.90;;;;;;5055466;28;20080;-74
2020/12/08 10:26:50;;;;;;;20.75;15.15;;;5.60;99.90;;;;;;5055354;28;20131;-75
2020/12/08 10:29:16;;;;;;;19.20;13.88;;;5.70;99.90;;;;;;5054465;28;20049;-74
2020/12/08 10:31:43;;;;;;;21.35;15.05;;;5.70;99.90;;;;;;5054784;28;20053;-75
2020/12/08 10:34:09;;;;;;;22.08;15.63;;;5.80;99.90;;;;;;5054943;28;20099;-74
2020/12/08 10:36:36;;;;;;;22.33;15.00;;;5.80;99.90;;;;;;5055433;28;20080;-74
2020/12/08 10:39:04;;;;;;;20.08;14.27;;;5.80;99.90;;;;;;5055065;28;20096;-75
2020/12/08 10:41:31;;;;;;;20.23;14.27;;;5.70;99.90;;;;;;5054922;28;20120;-75
2020/12/08 10:43:58;;;;;;;22.02;15.45;;;5.80;99.90;;;;;;5055069;28;20049;-76
2020/12/08 10:46:25;;;;;;;18.70;14.10;;;5.80;99.90;;;;;;5054583;28;20135;-75
2020/12/08 10:48:51;;;;;;;19.48;14.02;;;5.90;99.90;;;;;;5054252;28;20079;-75
2020/12/08 10:51:21;;;;;;;21.10;14.57;;;6.00;99.90;;;;;;5054175;28;20136;-75
2020/12/08 10:53:48;;;;;;;21.70;15.25;;;5.90;99.90;;;;;;5054572;28;20045;-76
2020/12/08 10:56:18;;;;;;;25.42;16.67;;;5.90;99.90;;;;;;5054602;28;20049;-75
2020/12/08 10:58:45;;;;;;;21.80;14.95;;;5.90;99.90;;;;;;5054006;28;20136;-74
2020/12/08 11:01:17;;;;;;;21.98;15.70;;;5.90;99.90;;;;;;5053356;28;20131;-75
2020/12/08 11:03:43;;;;;;;22.77;16.48;;;5.80;99.90;;;;;;5054298;28;20136;-75
2020/12/08 11:06:10;;;;;;;26.42;17.13;;;5.90;99.90;;;;;;5053660;28;20505;-76
2020/12/08 11:08:36;;;;;;;22.85;16.08;;;5.80;99.90;;;;;;5053713;28;20469;-75
2020/12/08 11:11:05;;;;;;;22.25;16.15;;;5.90;99.90;;;;;;5053898;28;20151;-75
2020/12/08 11:13:31;;;;;;;23.20;17.10;;;6.00;99.90;;;;;;5053705;28;20059;-75
2020/12/08 11:15:58;;;;;;;22.88;16.42;;;6.10;99.90;;;;;;5054108;28;20107;-74
2020/12/08 11:18:26;;;;;;;24.85;16.83;;;6.00;99.90;;;;;;5050629;28;20055;-75
2020/12/08 11:20:52;;;;;;;23.90;17.10;;;6.10;99.90;;;;;;5053863;28;20091;-75
2020/12/08 11:23:18;;;;;;;22.60;16.55;;;6.20;99.90;;;;;;5053206;28;20072;-74
2020/12/08 11:25:45;;;;;;;21.35;15.30;;;6.20;99.90;;;;;;5050953;28;20078;-73
2020/12/08 11:28:12;;;;;;;22.15;15.85;;;6.20;99.90;;;;;;5053506;28;20045;-74
2020/12/08 11:30:38;;;;;;;19.77;14.40;;;6.30;99.90;;;;;;5053364;28;20102;-74
2020/12/08 11:33:04;;;;;;;18.73;13.30;;;6.40;99.90;;;;;;5050214;28;20398;-75
2020/12/08 11:35:32;;;;;;;20.65;13.88;;;6.40;99.90;;;;;;5053190;28;20092;-74
2020/12/08 11:37:58;;;;;;;19.38;13.48;;;6.40;99.90;;;;;;5053113;28;20057;-77
2020/12/08 11:40:25;;;;;;;20.73;13.35;;;6.40;99.90;;;;;;5053086;28;20137;-74
2020/12/08 11:42:51;;;;;;;21.17;12.85;;;6.20;99.90;;;;;;5053221;28;20083;-74
2020/12/08 11:45:17;;;;;;;17.45;12.82;;;6.20;99.90;;;;;;5053529;28;20080;-75
2020/12/08 11:47:44;;;;;;;20.65;13.55;;;6.10;99.90;;;;;;5051478;28;20040;-74
2020/12/08 11:50:11;;;;;;;17.55;12.43;;;6.00;99.90;;;;;;5051789;28;20103;-74
2020/12/08 11:52:38;;;;;;;17.50;13.05;;;5.90;99.90;;;;;;5051781;28;20098;-75
2020/12/08 11:55:06;;;;;;;18.08;13.30;;;6.00;99.90;;;;;;5051150;28;20123;-73
2020/12/08 11:57:33;;;;;;;18.30;13.13;;;6.10;99.90;;;;;;5054214;28;20060;-74
2020/12/08 11:59:59;;;;;;;19.70;12.95;;;6.10;99.90;;;;;;5054523;28;20084;-73
2020/12/08 12:02:26;;;;;;;19.63;13.30;;;6.20;99.90;;;;;;5053912;28;20084;-75
2020/12/08 12:04:52;;;;;;;18.88;12.68;;;6.20;99.90;;;;;;5054232;28;20467;-74
2020/12/08 12:07:20;;;;;;;18.55;12.57;;;6.20;99.90;;;;;;5053630;28;20080;-75
2020/12/08 12:09:49;;;;;;;19.08;13.45;;;6.10;99.90;;;;;;5053540;28;20136;-74
2020/12/08 12:12:16;;;;;;;22.92;14.25;;;6.00;99.90;;;;;;5053982;28;20589;-73
2020/12/08 12:14:42;;;;;;;17.90;12.88;;;6.10;99.90;;;;;;5053446;28;20128;-73
2020/12/08 12:17:09;;;;;;;17.60;13.15;;;6.10;99.90;;;;;;5053894;28;20091;-76
2020/12/08 12:19:35;;;;;;;20.17;13.68;;;6.10;99.90;;;;;;5053255;28;20528;-74
2020/12/08 12:22:01;;;;;;;20.10;13.40;;;6.20;99.90;;;;;;5052041;28;20084;-73
2020/12/08 12:24:28;;;;;;;18.60;13.70;;;6.20;99.90;;;;;;5052211;28;20045;-74
2020/12/08 12:26:56;;;;;;;23.08;13.25;;;6.20;99.90;;;;;;5052709;28;20091;-74
2020/12/08 12:29:22;;;;;;;18.33;13.05;;;6.30;99.90;;;;;;5052820;28;20076;-73
2020/12/08 12:31:49;;;;;;;17.73;12.57;;;6.20;99.90;;;;;;5052596;28;20049;-73
2020/12/08 12:34:17;;;;;;;19.83;12.95;;;6.20;99.90;;;;;;5052763;28;20053;-72
2020/12/08 12:36:47;;;;;;;19.33;13.23;;;6.30;99.90;;;;;;5052749;28;20049;-72
2020/12/08 12:39:13;;;;;;;18.05;11.93;;;6.30;99.90;;;;;;5052564;28;20111;-73
2020/12/08 12:41:40;;;;;;;22.45;12.90;;;6.30;99.90;;;;;;5052135;28;20088;-73